sensor_id;sensor_type;location;lat;lon;timestamp;pressure;altitude;pressure_sealevel;temperature;humidity
62712;BME280;48772;55.586;37.730;2023-04-08T00:00:36;100284.22;;;4.60;74.60
62712;BME280;48772;55.586;37.730;2023-04-08T00:03:02;100362.06;;;5.09;75.26
62712;BME280;48772;55.586;37.730;2023-04-08T00:05:28;100346.78;;;4.97;76.10
62712;BME280;48772;55.586;37.730;2023-04-08T00:07:54;100355.63;;;4.96;77.94
62712;BME280;48772;55.586;37.730;2023-04-08T00:10:19;100320.50;;;4.75;78.07
62712;BME280;48772;55.586;37.730;2023-04-08T00:12:46;100366.22;;;4.96;79.35
62712;BME280;48772;55.586;37.730;2023-04-08T00:15:15;100332.84;;;4.75;79.96
62712;BME280;48772;55.586;37.730;2023-04-08T00:17:41;100355.06;;;4.89;79.35
62712;BME280;48772;55.586;37.730;2023-04-08T00:20:07;100331.91;;;4.76;80.27
62712;BME280;48772;55.586;37.730;2023-04-08T00:22:33;100342.34;;;4.79;81.50
62712;BME280;48772;55.586;37.730;2023-04-08T00:24:58;100359.88;;;4.80;82.37
62712;BME280;48772;55.586;37.730;2023-04-08T00:27:24;100340.47;;;4.62;84.01
62712;BME280;48772;55.586;37.730;2023-04-08T00:29:50;100358.47;;;4.73;82.90
62712;BME280;48772;55.586;37.730;2023-04-08T00:32:16;100346.47;;;4.66;83.03
62712;BME280;48772;55.586;37.730;2023-04-08T00:34:42;100362.97;;;4.71;84.57
62712;BME280;48772;55.586;37.730;2023-04-08T00:37:08;100315.94;;;4.40;86.39
62712;BME280;48772;55.586;37.730;2023-04-08T00:39:36;100360.00;;;4.58;87.93
62712;BME280;48772;55.586;37.730;2023-04-08T00:42:01;100333.28;;;4.46;88.03
62712;BME280;48772;55.586;37.730;2023-04-08T00:44:28;100365.28;;;4.58;89.03
62712;BME280;48772;55.586;37.730;2023-04-08T00:46:54;100359.25;;;4.56;89.02
62712;BME280;48772;55.586;37.730;2023-04-08T00:49:20;100331.66;;;4.43;88.79
62712;BME280;48772;55.586;37.730;2023-04-08T00:51:45;100335.50;;;4.36;89.46
62712;BME280;48772;55.586;37.730;2023-04-08T00:54:11;100371.69;;;4.53;90.44
62712;BME280;48772;55.586;37.730;2023-04-08T00:56:37;100333.41;;;4.24;90.42
62712;BME280;48772;55.586;37.730;2023-04-08T00:59:04;100330.69;;;4.26;90.79
62712;BME280;48772;55.586;37.730;2023-04-08T01:07:29;100351.53;;;4.32;93.57
62712;BME280;48772;55.586;37.730;2023-04-08T01:10:00;100338.09;;;4.18;95.24
62712;BME280;48772;55.586;37.730;2023-04-08T01:12:28;100367.53;;;4.29;96.21
62712;BME280;48772;55.586;37.730;2023-04-08T01:15:06;100365.72;;;4.29;97.19
62712;BME280;48772;55.586;37.730;2023-04-08T01:17:33;100341.09;;;4.09;97.89
62712;BME280;48772;55.586;37.730;2023-04-08T01:20:02;100351.59;;;4.10;99.16
62712;BME280;48772;55.586;37.730;2023-04-08T01:25:23;100375.75;;;4.21;99.49
62712;BME280;48772;55.586;37.730;2023-04-08T01:27:51;100362.88;;;4.14;99.66
62712;BME280;48772;55.586;37.730;2023-04-08T01:30:22;100339.78;;;3.99;100.00
62712;BME280;48772;55.586;37.730;2023-04-08T01:32:51;100357.13;;;4.04;100.00
62712;BME280;48772;55.586;37.730;2023-04-08T01:35:21;100366.84;;;4.04;100.00
62712;BME280;48772;55.586;37.730;2023-04-08T01:37:49;100346.22;;;3.92;100.00
62712;BME280;48772;55.586;37.730;2023-04-08T01:40:16;100354.50;;;3.84;100.00
62712;BME280;48772;55.586;37.730;2023-04-08T01:42:44;100347.63;;;3.80;100.00
62712;BME280;48772;55.586;37.730;2023-04-08T01:45:11;100338.06;;;3.78;100.00
62712;BME280;48772;55.586;37.730;2023-04-08T01:47:37;100325.50;;;3.63;100.00
62712;BME280;48772;55.586;37.730;2023-04-08T01:50:05;100374.59;;;3.87;100.00
62712;BME280;48772;55.586;37.730;2023-04-08T01:52:34;100363.34;;;3.83;100.00
62712;BME280;48772;55.586;37.730;2023-04-08T01:55:02;100355.84;;;3.73;100.00
62712;BME280;48772;55.586;37.730;2023-04-08T01:57:31;100374.84;;;3.81;100.00
62712;BME280;48772;55.586;37.730;2023-04-08T02:00:08;100378.34;;;3.81;100.00
62712;BME280;48772;55.586;37.730;2023-04-08T02:02:50;100374.91;;;3.79;100.00
62712;BME280;48772;55.586;37.730;2023-04-08T02:05:18;100366.78;;;3.64;100.00
62712;BME280;48772;55.586;37.730;2023-04-08T02:07:43;100359.78;;;3.63;100.00
62712;BME280;48772;55.586;37.730;2023-04-08T02:10:12;100359.94;;;3.60;100.00
62712;BME280;48772;55.586;37.730;2023-04-08T02:12:38;100375.59;;;3.63;100.00
62712;BME280;48772;55.586;37.730;2023-04-08T02:15:09;100373.78;;;3.65;100.00
62712;BME280;48772;55.586;37.730;2023-04-08T02:17:42;100363.59;;;3.56;100.00
62712;BME280;48772;55.586;37.730;2023-04-08T02:23:13;100317.44;;;3.24;100.00
62712;BME280;48772;55.586;37.730;2023-04-08T02:25:43;100365.72;;;3.46;100.00
62712;BME280;48772;55.586;37.730;2023-04-08T02:28:10;100351.94;;;3.39;100.00
62712;BME280;48772;55.586;37.730;2023-04-08T02:30:40;100356.50;;;3.36;100.00
62712;BME280;48772;55.586;37.730;2023-04-08T02:33:07;100349.56;;;3.33;100.00
62712;BME280;48772;55.586;37.730;2023-04-08T02:35:34;100364.47;;;3.34;100.00
62712;BME280;48772;55.586;37.730;2023-04-08T02:38:00;100385.88;;;3.48;100.00
62712;BME280;48772;55.586;37.730;2023-04-08T02:40:29;100355.84;;;3.29;100.00
62712;BME280;48772;55.586;37.730;2023-04-08T02:42:56;100394.00;;;3.42;100.00
62712;BME280;48772;55.586;37.730;2023-04-08T02:45:29;100365.78;;;3.23;100.00
62712;BME280;48772;55.586;37.730;2023-04-08T02:47:56;100378.69;;;3.30;100.00
62712;BME280;48772;55.586;37.730;2023-04-08T02:50:22;100389.94;;;3.34;100.00
62712;BME280;48772;55.586;37.730;2023-04-08T02:52:48;100401.19;;;3.39;100.00
62712;BME280;48772;55.586;37.730;2023-04-08T02:55:13;100365.84;;;3.21;100.00
62712;BME280;48772;55.586;37.730;2023-04-08T02:57:41;100394.13;;;3.39;100.00
62712;BME280;48772;55.586;37.730;2023-04-08T03:00:07;100396.69;;;3.41;100.00
62712;BME280;48772;55.586;37.730;2023-04-08T03:02:34;100389.16;;;3.32;100.00
62712;BME280;48772;55.586;37.730;2023-04-08T03:05:00;100348.94;;;3.05;100.00
62712;BME280;48772;55.586;37.730;2023-04-08T03:07:26;100388.53;;;3.25;100.00
62712;BME280;48772;55.586;37.730;2023-04-08T03:09:53;100402.09;;;3.38;100.00
62712;BME280;48772;55.586;37.730;2023-04-08T03:12:20;100392.53;;;3.35;100.00
62712;BME280;48772;55.586;37.730;2023-04-08T03:14:45;100364.09;;;3.22;100.00
62712;BME280;48772;55.586;37.730;2023-04-08T03:17:11;100401.91;;;3.42;100.00
62712;BME280;48772;55.586;37.730;2023-04-08T03:19:37;100374.44;;;3.26;100.00
62712;BME280;48772;55.586;37.730;2023-04-08T03:22:05;100347.88;;;3.09;100.00
62712;BME280;48772;55.586;37.730;2023-04-08T03:24:31;100370.38;;;3.18;100.00
62712;BME280;48772;55.586;37.730;2023-04-08T03:26:56;100377.19;;;3.23;100.00
62712;BME280;48772;55.586;37.730;2023-04-08T03:29:22;100402.84;;;3.41;100.00
62712;BME280;48772;55.586;37.730;2023-04-08T03:31:48;100406.97;;;3.48;100.00
62712;BME280;48772;55.586;37.730;2023-04-08T03:34:13;100405.28;;;3.46;100.00
62712;BME280;48772;55.586;37.730;2023-04-08T03:36:39;100396.34;;;3.50;100.00
62712;BME280;48772;55.586;37.730;2023-04-08T03:39:05;100403.81;;;3.61;100.00
62712;BME280;48772;55.586;37.730;2023-04-08T03:41:30;100377.25;;;3.43;100.00
62712;BME280;48772;55.586;37.730;2023-04-08T03:43:56;100388.72;;;3.42;100.00
62712;BME280;48772;55.586;37.730;2023-04-08T03:46:22;100391.84;;;3.52;100.00
62712;BME280;48772;55.586;37.730;2023-04-08T03:48:48;100396.34;;;3.50;100.00
62712;BME280;48772;55.586;37.730;2023-04-08T03:51:13;100376.47;;;3.41;100.00
62712;BME280;48772;55.586;37.730;2023-04-08T03:53:39;100393.28;;;3.61;100.00
62712;BME280;48772;55.586;37.730;2023-04-08T03:56:05;100415.34;;;3.80;100.00
62712;BME280;48772;55.586;37.730;2023-04-08T03:58:31;100408.78;;;3.90;100.00
62712;BME280;48772;55.586;37.730;2023-04-08T04:00:57;100405.81;;;3.97;100.00
62712;BME280;48772;55.586;37.730;2023-04-08T04:03:23;100410.06;;;4.01;100.00
62712;BME280;48772;55.586;37.730;2023-04-08T04:05:49;100414.22;;;4.07;100.00
62712;BME280;48772;55.586;37.730;2023-04-08T04:08:15;100406.22;;;4.08;100.00
62712;BME280;48772;55.586;37.730;2023-04-08T04:10:41;100405.25;;;4.11;100.00
62712;BME280;48772;55.586;37.730;2023-04-08T04:13:06;100383.72;;;4.00;100.00
62712;BME280;48772;55.586;37.730;2023-04-08T04:15:32;100358.25;;;3.99;100.00
62712;BME280;48772;55.586;37.730;2023-04-08T04:17:58;100422.56;;;4.38;100.00
62712;BME280;48772;55.586;37.730;2023-04-08T04:20:23;100422.94;;;4.49;100.00
62712;BME280;48772;55.586;37.730;2023-04-08T04:22:50;100423.13;;;4.44;100.00
62712;BME280;48772;55.586;37.730;2023-04-08T04:25:16;100399.72;;;4.37;100.00
62712;BME280;48772;55.586;37.730;2023-04-08T04:27:42;100404.59;;;4.46;100.00
62712;BME280;48772;55.586;37.730;2023-04-08T04:30:07;100415.53;;;4.57;100.00
62712;BME280;48772;55.586;37.730;2023-04-08T04:32:34;100419.56;;;4.65;100.00
62712;BME280;48772;55.586;37.730;2023-04-08T04:35:00;100403.13;;;4.59;100.00
62712;BME280;48772;55.586;37.730;2023-04-08T04:37:26;100428.59;;;4.80;100.00
62712;BME280;48772;55.586;37.730;2023-04-08T04:39:51;100404.16;;;4.75;100.00
62712;BME280;48772;55.586;37.730;2023-04-08T04:42:17;100417.41;;;4.93;100.00
62712;BME280;48772;55.586;37.730;2023-04-08T04:44:43;100400.25;;;5.02;100.00
62712;BME280;48772;55.586;37.730;2023-04-08T04:47:09;100410.38;;;5.12;100.00
62712;BME280;48772;55.586;37.730;2023-04-08T04:49:34;100423.22;;;5.38;100.00
62712;BME280;48772;55.586;37.730;2023-04-08T04:52:00;100422.44;;;5.55;100.00
62712;BME280;48772;55.586;37.730;2023-04-08T04:54:26;100421.06;;;5.65;100.00
62712;BME280;48772;55.586;37.730;2023-04-08T04:56:52;100344.56;;;5.25;100.00
62712;BME280;48772;55.586;37.730;2023-04-08T04:59:17;100343.81;;;5.40;100.00
62712;BME280;48772;55.586;37.730;2023-04-08T05:01:43;100386.00;;;5.78;100.00
62712;BME280;48772;55.586;37.730;2023-04-08T05:04:09;100424.13;;;6.10;100.00
62712;BME280;48772;55.586;37.730;2023-04-08T05:06:34;100411.69;;;6.12;100.00
62712;BME280;48772;55.586;37.730;2023-04-08T05:09:01;100415.88;;;6.33;100.00
62712;BME280;48772;55.586;37.730;2023-04-08T05:11:29;100390.19;;;6.35;97.79
62712;BME280;48772;55.586;37.730;2023-04-08T05:13:55;100419.88;;;6.58;96.49
62712;BME280;48772;55.586;37.730;2023-04-08T05:16:21;100417.06;;;6.61;93.89
62712;BME280;48772;55.586;37.730;2023-04-08T05:18:46;100410.38;;;6.54;93.99
62712;BME280;48772;55.586;37.730;2023-04-08T05:21:12;100416.56;;;6.70;93.18
62712;BME280;48772;55.586;37.730;2023-04-08T05:23:38;100442.78;;;6.92;92.10
62712;BME280;48772;55.586;37.730;2023-04-08T05:26:06;100402.13;;;6.76;91.53
62712;BME280;48772;55.586;37.730;2023-04-08T05:28:33;100413.91;;;7.03;89.51
62712;BME280;48772;55.586;37.730;2023-04-08T05:30:59;100438.03;;;7.31;88.76
62712;BME280;48772;55.586;37.730;2023-04-08T05:33:24;100449.25;;;7.52;86.78
62712;BME280;48772;55.586;37.730;2023-04-08T05:35:51;100449.75;;;7.58;86.36
62712;BME280;48772;55.586;37.730;2023-04-08T05:38:17;100440.88;;;7.59;83.99
62712;BME280;48772;55.586;37.730;2023-04-08T05:40:43;100446.88;;;7.78;83.09
62712;BME280;48772;55.586;37.730;2023-04-08T05:43:09;100434.88;;;7.71;81.90
62712;BME280;48772;55.586;37.730;2023-04-08T05:45:35;100443.63;;;7.73;82.76
62712;BME280;48772;55.586;37.730;2023-04-08T05:48:01;100415.88;;;7.63;82.64
62712;BME280;48772;55.586;37.730;2023-04-08T05:50:27;100442.91;;;8.01;82.04
62712;BME280;48772;55.586;37.730;2023-04-08T05:52:52;100390.56;;;7.87;80.53
62712;BME280;48772;55.586;37.730;2023-04-08T05:55:18;100447.63;;;8.27;80.47
62712;BME280;48772;55.586;37.730;2023-04-08T05:57:44;100449.22;;;8.29;79.20
62712;BME280;48772;55.586;37.730;2023-04-08T06:00:10;100432.78;;;8.52;83.70
62712;BME280;48772;55.586;37.730;2023-04-08T06:02:36;100434.00;;;8.76;79.23
62712;BME280;48772;55.586;37.730;2023-04-08T06:05:03;100434.91;;;8.75;74.92
62712;BME280;48772;55.586;37.730;2023-04-08T06:07:29;100430.38;;;8.77;74.34
62712;BME280;48772;55.586;37.730;2023-04-08T06:09:55;100433.44;;;8.99;73.04
62712;BME280;48772;55.586;37.730;2023-04-08T06:12:20;100412.91;;;9.15;71.22
62712;BME280;48772;55.586;37.730;2023-04-08T06:14:47;100439.41;;;9.59;70.86
62712;BME280;48772;55.586;37.730;2023-04-08T06:17:17;100435.81;;;9.86;67.17
62712;BME280;48772;55.586;37.730;2023-04-08T06:19:43;100424.38;;;9.84;65.54
62712;BME280;48772;55.586;37.730;2023-04-08T06:22:09;100443.19;;;10.09;64.83
62712;BME280;48772;55.586;37.730;2023-04-08T06:24:35;100441.97;;;10.28;63.77
62712;BME280;48772;55.586;37.730;2023-04-08T06:27:19;100439.47;;;10.51;61.89
62712;BME280;48772;55.586;37.730;2023-04-08T06:29:45;100424.47;;;10.24;61.35
62712;BME280;48772;55.586;37.730;2023-04-08T06:32:30;100438.00;;;10.60;60.97
62712;BME280;48772;55.586;37.730;2023-04-08T06:34:56;100436.19;;;10.73;60.95
62712;BME280;48772;55.586;37.730;2023-04-08T06:37:22;100434.22;;;11.01;58.88
62712;BME280;48772;55.586;37.730;2023-04-08T06:39:47;100426.31;;;11.25;57.67
62712;BME280;48772;55.586;37.730;2023-04-08T06:42:32;100402.03;;;11.15;56.44
62712;BME280;48772;55.586;37.730;2023-04-08T06:45:07;100441.66;;;11.46;55.73
62712;BME280;48772;55.586;37.730;2023-04-08T06:47:33;100394.47;;;11.34;55.73
62712;BME280;48772;55.586;37.730;2023-04-08T06:49:58;100424.41;;;11.75;54.39
62712;BME280;48772;55.586;37.730;2023-04-08T06:52:25;100416.09;;;12.03;53.53
62712;BME280;48772;55.586;37.730;2023-04-08T06:54:50;100432.84;;;12.29;52.21
62712;BME280;48772;55.586;37.730;2023-04-08T06:57:16;100396.06;;;12.09;51.30
62712;BME280;48772;55.586;37.730;2023-04-08T06:59:42;100431.03;;;12.53;50.64
62712;BME280;48772;55.586;37.730;2023-04-08T07:02:08;100434.25;;;12.80;50.50
62712;BME280;48772;55.586;37.730;2023-04-08T07:04:52;100422.31;;;12.73;49.50
62712;BME280;48772;55.586;37.730;2023-04-08T07:07:17;100426.66;;;13.08;49.30
62712;BME280;48772;55.586;37.730;2023-04-08T07:09:43;100408.56;;;13.23;48.02
62712;BME280;48772;55.586;37.730;2023-04-08T07:12:29;100419.00;;;13.81;47.27
62712;BME280;48772;55.586;37.730;2023-04-08T07:14:55;100420.19;;;13.66;46.46
62712;BME280;48772;55.586;37.730;2023-04-08T07:17:21;100416.59;;;13.45;46.97
62712;BME280;48772;55.586;37.730;2023-04-08T07:19:49;100411.59;;;13.41;46.22
62712;BME280;48772;55.586;37.730;2023-04-08T07:22:34;100410.59;;;13.53;46.31
62712;BME280;48772;55.586;37.730;2023-04-08T07:24:59;100394.88;;;13.70;45.32
62712;BME280;48772;55.586;37.730;2023-04-08T07:27:25;100387.63;;;13.93;45.00
62712;BME280;48772;55.586;37.730;2023-04-08T07:29:52;100383.00;;;13.95;44.49
62712;BME280;48772;55.586;37.730;2023-04-08T07:32:18;100394.16;;;13.57;44.55
62712;BME280;48772;55.586;37.730;2023-04-08T07:34:44;100406.19;;;13.74;44.85
62712;BME280;48772;55.586;37.730;2023-04-08T07:37:10;100411.22;;;13.67;45.26
62712;BME280;48772;55.586;37.730;2023-04-08T07:39:35;100394.41;;;13.43;46.18
62712;BME280;48772;55.586;37.730;2023-04-08T07:42:20;100418.56;;;13.97;45.63
62712;BME280;48772;55.586;37.730;2023-04-08T07:44:46;100396.81;;;14.22;44.53
62712;BME280;48772;55.586;37.730;2023-04-08T07:47:12;100373.38;;;14.35;43.48
62712;BME280;48772;55.586;37.730;2023-04-08T07:49:38;100411.53;;;14.59;43.17
62712;BME280;48772;55.586;37.730;2023-04-08T07:52:05;100406.34;;;14.46;43.91
62712;BME280;48772;55.586;37.730;2023-04-08T07:54:31;100382.31;;;14.45;42.72
62712;BME280;48772;55.586;37.730;2023-04-08T07:56:59;100417.13;;;14.87;42.22
62712;BME280;48772;55.586;37.730;2023-04-08T07:59:27;100385.41;;;15.02;42.01
62712;BME280;48772;55.586;37.730;2023-04-08T08:01:53;100414.22;;;15.20;41.37
62712;BME280;48772;55.586;37.730;2023-04-08T08:04:18;100406.16;;;15.00;41.14
62712;BME280;48772;55.586;37.730;2023-04-08T08:06:45;100413.13;;;15.32;41.00
62712;BME280;48772;55.586;37.730;2023-04-08T08:09:12;100377.91;;;15.65;40.22
62712;BME280;48772;55.586;37.730;2023-04-08T08:11:38;100405.16;;;16.00;39.85
62712;BME280;48772;55.586;37.730;2023-04-08T08:14:04;100392.28;;;16.04;38.82
62712;BME280;48772;55.586;37.730;2023-04-08T08:16:30;100396.13;;;16.20;38.31
62712;BME280;48772;55.586;37.730;2023-04-08T08:18:58;100372.81;;;15.72;38.12
62712;BME280;48772;55.586;37.730;2023-04-08T08:21:24;100363.09;;;15.99;38.10
62712;BME280;48772;55.586;37.730;2023-04-08T08:23:53;100390.47;;;16.04;37.92
62712;BME280;48772;55.586;37.730;2023-04-08T08:26:19;100403.03;;;15.94;38.04
62712;BME280;48772;55.586;37.730;2023-04-08T08:28:45;100375.66;;;15.70;39.13
62712;BME280;48772;55.586;37.730;2023-04-08T08:31:12;100370.63;;;16.24;38.37
62712;BME280;48772;55.586;37.730;2023-04-08T08:33:38;100385.09;;;16.62;37.50
62712;BME280;48772;55.586;37.730;2023-04-08T08:36:04;100385.97;;;16.53;37.08
62712;BME280;48772;55.586;37.730;2023-04-08T08:38:29;100382.56;;;16.51;37.02
62712;BME280;48772;55.586;37.730;2023-04-08T08:40:56;100373.06;;;16.66;36.27
62712;BME280;48772;55.586;37.730;2023-04-08T08:43:26;100377.28;;;16.68;36.36
62712;BME280;48772;55.586;37.730;2023-04-08T08:45:53;100362.16;;;16.58;35.75
62712;BME280;48772;55.586;37.730;2023-04-08T08:48:19;100362.41;;;16.83;35.87
62712;BME280;48772;55.586;37.730;2023-04-08T08:50:45;100373.81;;;16.49;35.83
62712;BME280;48772;55.586;37.730;2023-04-08T08:53:11;100333.25;;;16.02;35.77
62712;BME280;48772;55.586;37.730;2023-04-08T08:55:37;100371.91;;;15.52;36.68
62712;BME280;48772;55.586;37.730;2023-04-08T08:58:04;100356.13;;;15.68;36.89
62712;BME280;48772;55.586;37.730;2023-04-08T09:00:31;100347.25;;;16.06;35.42
62712;BME280;48772;55.586;37.730;2023-04-08T09:03:17;100368.94;;;16.33;34.83
62712;BME280;48772;55.586;37.730;2023-04-08T09:05:59;100337.53;;;16.43;34.89
62712;BME280;48772;55.586;37.730;2023-04-08T09:08:32;100343.59;;;16.26;35.04
62712;BME280;48772;55.586;37.730;2023-04-08T09:11:14;100376.16;;;16.23;35.74
62712;BME280;48772;55.586;37.730;2023-04-08T09:13:40;100359.28;;;16.02;35.43
62712;BME280;48772;55.586;37.730;2023-04-08T09:16:08;100376.00;;;16.05;35.82
62712;BME280;48772;55.586;37.730;2023-04-08T09:18:38;100380.16;;;16.48;35.24
62712;BME280;48772;55.586;37.730;2023-04-08T09:21:05;100345.72;;;16.32;34.80
62712;BME280;48772;55.586;37.730;2023-04-08T09:24:05;100379.59;;;16.63;34.45
62712;BME280;48772;55.586;37.730;2023-04-08T09:26:31;100353.66;;;16.53;34.34
62712;BME280;48772;55.586;37.730;2023-04-08T09:31:30;100367.75;;;17.02;34.17
62712;BME280;48772;55.586;37.730;2023-04-08T09:33:58;100348.22;;;17.18;33.71
62712;BME280;48772;55.586;37.730;2023-04-08T09:36:25;100348.13;;;17.10;33.54
62712;BME280;48772;55.586;37.730;2023-04-08T09:38:52;100367.03;;;17.46;32.91
62712;BME280;48772;55.586;37.730;2023-04-08T09:41:20;100325.59;;;17.92;32.06
62712;BME280;48772;55.586;37.730;2023-04-08T09:43:53;100365.28;;;17.99;32.17
62712;BME280;48772;55.586;37.730;2023-04-08T09:46:32;100357.28;;;18.25;31.99
62712;BME280;48772;55.586;37.730;2023-04-08T09:49:12;100344.63;;;17.90;32.16
62712;BME280;48772;55.586;37.730;2023-04-08T09:51:48;100331.91;;;17.56;32.26
62712;BME280;48772;55.586;37.730;2023-04-08T09:54:20;100344.75;;;17.35;32.62
62712;BME280;48772;55.586;37.730;2023-04-08T09:57:00;100330.94;;;17.74;32.45
62712;BME280;48772;55.586;37.730;2023-04-08T09:59:29;100346.47;;;18.07;32.50
62712;BME280;48772;55.586;37.730;2023-04-08T10:02:00;100326.94;;;18.31;32.17
62712;BME280;48772;55.586;37.730;2023-04-08T10:04:31;100327.69;;;18.76;31.50
62712;BME280;48772;55.586;37.730;2023-04-08T10:07:03;100342.88;;;18.16;32.14
62712;BME280;48772;55.586;37.730;2023-04-08T10:09:30;100341.84;;;18.00;32.05
62712;BME280;48772;55.586;37.730;2023-04-08T10:11:57;100327.66;;;18.33;31.18
62712;BME280;48772;55.586;37.730;2023-04-08T10:14:23;100304.91;;;18.18;30.73
62712;BME280;48772;55.586;37.730;2023-04-08T10:17:24;100330.03;;;17.66;30.23
62712;BME280;48772;55.586;37.730;2023-04-08T10:19:53;100340.84;;;17.83;30.58
62712;BME280;48772;55.586;37.730;2023-04-08T10:28:01;100332.59;;;18.20;31.23
62712;BME280;48772;55.586;37.730;2023-04-08T10:33:19;100329.03;;;19.05;30.16
62712;BME280;48772;55.586;37.730;2023-04-08T10:38:18;100324.56;;;19.22;29.28
62712;BME280;48772;55.586;37.730;2023-04-08T10:40:44;100309.34;;;18.87;29.70
62712;BME280;48772;55.586;37.730;2023-04-08T10:43:14;100320.00;;;18.89;31.09
62712;BME280;48772;55.586;37.730;2023-04-08T10:45:41;100336.97;;;18.56;31.96
62712;BME280;48772;55.586;37.730;2023-04-08T10:50:51;100303.19;;;19.03;30.86
62712;BME280;48772;55.586;37.730;2023-04-08T10:53:17;100305.13;;;19.52;30.52
62712;BME280;48772;55.586;37.730;2023-04-08T10:55:48;100283.97;;;19.39;30.56
62712;BME280;48772;55.586;37.730;2023-04-08T10:58:14;100281.31;;;19.56;30.30
62712;BME280;48772;55.586;37.730;2023-04-08T11:00:40;100303.56;;;20.07;29.89
62712;BME280;48772;55.586;37.730;2023-04-08T11:03:09;100290.31;;;19.72;29.85
62712;BME280;48772;55.586;37.730;2023-04-08T11:05:37;100297.81;;;20.02;29.45
62712;BME280;48772;55.586;37.730;2023-04-08T11:08:04;100292.06;;;19.97;29.80
62712;BME280;48772;55.586;37.730;2023-04-08T11:10:40;100294.16;;;19.20;30.31
62712;BME280;48772;55.586;37.730;2023-04-08T11:13:15;100278.75;;;19.20;29.91
62712;BME280;48772;55.586;37.730;2023-04-08T11:15:41;100278.44;;;19.65;29.24
62712;BME280;48772;55.586;37.730;2023-04-08T11:18:07;100287.19;;;20.25;29.19
62712;BME280;48772;55.586;37.730;2023-04-08T11:20:33;100281.25;;;20.21;29.24
62712;BME280;48772;55.586;37.730;2023-04-08T11:23:01;100265.31;;;20.02;29.06
62712;BME280;48772;55.586;37.730;2023-04-08T11:25:28;100285.50;;;20.16;28.94
62712;BME280;48772;55.586;37.730;2023-04-08T11:27:54;100279.00;;;19.85;29.30
62712;BME280;48772;55.586;37.730;2023-04-08T11:30:20;100272.75;;;19.92;29.40
62712;BME280;48772;55.586;37.730;2023-04-08T11:32:47;100278.88;;;20.10;28.92
62712;BME280;48772;55.586;37.730;2023-04-08T11:35:15;100272.13;;;20.22;28.81
62712;BME280;48772;55.586;37.730;2023-04-08T11:37:41;100248.09;;;20.11;28.61
62712;BME280;48772;55.586;37.730;2023-04-08T11:40:08;100267.31;;;19.84;29.00
62712;BME280;48772;55.586;37.730;2023-04-08T11:42:35;100249.06;;;19.94;28.54
62712;BME280;48772;55.586;37.730;2023-04-08T11:45:00;100272.25;;;19.97;29.15
62712;BME280;48772;55.586;37.730;2023-04-08T11:47:32;100262.28;;;19.97;29.11
62712;BME280;48772;55.586;37.730;2023-04-08T11:49:59;100251.41;;;19.73;29.38
62712;BME280;48772;55.586;37.730;2023-04-08T11:52:46;100253.63;;;20.02;29.01
62712;BME280;48772;55.586;37.730;2023-04-08T11:55:29;100260.22;;;19.99;29.01
62712;BME280;48772;55.586;37.730;2023-04-08T11:58:00;100238.50;;;19.51;29.57
62712;BME280;48772;55.586;37.730;2023-04-08T12:00:27;100243.19;;;19.33;29.46
62712;BME280;48772;55.586;37.730;2023-04-08T12:02:53;100241.56;;;19.14;28.93
62712;BME280;48772;55.586;37.730;2023-04-08T12:05:19;100222.78;;;18.46;29.66
62712;BME280;48772;55.586;37.730;2023-04-08T12:07:46;100216.44;;;18.55;29.57
62712;BME280;48772;55.586;37.730;2023-04-08T12:10:12;100243.13;;;18.58;30.48
62712;BME280;48772;55.586;37.730;2023-04-08T12:12:39;100213.78;;;18.63;29.87
62712;BME280;48772;55.586;37.730;2023-04-08T12:15:06;100225.66;;;18.27;30.62
62712;BME280;48772;55.586;37.730;2023-04-08T12:17:37;100246.47;;;18.77;30.40
62712;BME280;48772;55.586;37.730;2023-04-08T12:20:06;100239.22;;;18.86;30.01
62712;BME280;48772;55.586;37.730;2023-04-08T12:22:32;100245.66;;;18.85;30.22
62712;BME280;48772;55.586;37.730;2023-04-08T12:24:58;100225.31;;;18.47;30.66
62712;BME280;48772;55.586;37.730;2023-04-08T12:27:24;100233.78;;;18.78;30.03
62712;BME280;48772;55.586;37.730;2023-04-08T12:29:49;100213.09;;;18.61;30.23
62712;BME280;48772;55.586;37.730;2023-04-08T12:32:16;100227.66;;;19.01;30.00
62712;BME280;48772;55.586;37.730;2023-04-08T12:34:42;100214.72;;;18.79;30.39
62712;BME280;48772;55.586;37.730;2023-04-08T12:37:07;100228.88;;;18.48;30.71
62712;BME280;48772;55.586;37.730;2023-04-08T12:39:34;100214.84;;;18.27;30.82
62712;BME280;48772;55.586;37.730;2023-04-08T12:42:00;100227.78;;;17.98;30.68
62712;BME280;48772;55.586;37.730;2023-04-08T12:44:28;100222.31;;;17.90;30.34
62712;BME280;48772;55.586;37.730;2023-04-08T12:46:54;100222.94;;;18.01;30.33
62712;BME280;48772;55.586;37.730;2023-04-08T12:49:20;100221.41;;;17.99;30.40
62712;BME280;48772;55.586;37.730;2023-04-08T12:51:45;100226.97;;;18.23;30.10
62712;BME280;48772;55.586;37.730;2023-04-08T12:54:11;100207.97;;;17.89;30.51
62712;BME280;48772;55.586;37.730;2023-04-08T12:57:02;100200.44;;;17.93;30.24
62712;BME280;48772;55.586;37.730;2023-04-08T12:59:40;100177.31;;;17.55;30.27
62712;BME280;48772;55.586;37.730;2023-04-08T13:02:06;100179.66;;;17.50;30.15
62712;BME280;48772;55.586;37.730;2023-04-08T13:04:32;100195.38;;;17.55;30.69
62712;BME280;48772;55.586;37.730;2023-04-08T13:06:58;100212.22;;;17.74;30.61
62712;BME280;48772;55.586;37.730;2023-04-08T13:09:25;100213.03;;;17.67;30.53
62712;BME280;48772;55.586;37.730;2023-04-08T13:11:51;100198.59;;;17.93;30.55
62712;BME280;48772;55.586;37.730;2023-04-08T13:14:16;100209.97;;;18.05;30.07